createdAt,value
2019-03-25T00:02:12.018Z,164676.63
2019-03-25T00:04:41.156Z,164685.94
2019-03-25T00:07:10.141Z,164673.98
2019-03-25T00:09:39.034Z,164673.98
2019-03-25T00:12:08.014Z,164666.02
2019-03-25T00:14:37.135Z,164692.63
2019-03-25T00:17:06.605Z,164711.31
2019-03-25T00:19:35.672Z,164717.98
2019-03-25T00:22:04.835Z,164728.66
2019-03-25T00:24:38.748Z,164719.28
2019-03-25T00:27:04.575Z,164728.66
2019-03-25T00:29:33.931Z,164735.28
2019-03-25T00:32:03.133Z,164705.97
2019-03-25T00:34:32.008Z,164716.64
2019-03-25T00:37:01.825Z,164679.31
2019-03-25T00:39:30.844Z,164712.66
2019-03-25T00:42:00.899Z,164723.31
2019-03-25T00:44:30.150Z,164711.31
2019-03-25T00:46:59.128Z,164735.28
2019-03-25T00:49:28.049Z,164735.28
2019-03-25T00:51:57.282Z,164732.64
2019-03-25T00:54:26.353Z,164719.28
2019-03-25T00:56:56.799Z,164704.69
2019-03-25T00:59:25.745Z,164666.02
2019-03-25T01:01:54.664Z,164640.70
2019-03-25T01:04:23.709Z,164599.41
2019-03-25T01:06:52.633Z,164604.72
2019-03-25T01:09:21.758Z,164602.09
2019-03-25T01:11:51.540Z,164626.06
2019-03-25T01:14:20.464Z,164567.47
2019-03-25T01:16:49.560Z,164554.17
2019-03-25T01:19:18.474Z,164560.78
2019-03-25T01:21:47.416Z,164567.47
2019-03-25T01:24:16.482Z,164575.44
2019-03-25T01:26:45.715Z,164586.09
2019-03-25T01:29:15.027Z,164574.14
2019-03-25T01:31:44.246Z,164580.77
2019-03-25T01:34:13.253Z,164595.41
2019-03-25T01:36:42.157Z,164588.78
2019-03-25T01:39:11.054Z,164596.75
2019-03-25T01:41:40.045Z,164596.75
2019-03-25T01:44:09.327Z,164608.72
2019-03-25T01:46:38.467Z,164619.37
2019-03-25T01:49:07.568Z,164607.42
2019-03-25T01:51:36.510Z,164604.72
2019-03-25T01:54:05.411Z,164559.50
2019-03-25T01:56:35.186Z,164516.91
2019-03-25T01:59:04.142Z,164492.95
2019-03-25T02:01:33.183Z,164458.34
2019-03-25T02:04:02.238Z,164460.98
2019-03-25T02:06:31.177Z,164450.33
2019-03-25T02:09:00.236Z,164425.08
2019-03-25T02:11:29.264Z,164383.81
2019-03-25T02:13:59.444Z,164346.56
2019-03-25T02:16:28.430Z,164310.67
2019-03-25T02:18:57.416Z,164257.47
2019-03-25T02:21:26.435Z,164242.83
2019-03-25T02:23:55.403Z,164241.48
2019-03-25T02:26:24.406Z,164232.19
2019-03-25T02:28:53.366Z,164237.50
2019-03-25T02:31:22.474Z,164208.25
2019-03-25T02:33:51.429Z,164213.56
2019-03-25T02:36:20.411Z,164237.50
2019-03-25T02:38:49.796Z,164240.14
2019-03-25T02:41:19.238Z,164237.50
2019-03-25T02:43:48.722Z,164232.19
2019-03-25T02:46:17.689Z,164268.06
2019-03-25T02:48:47.522Z,164270.75
2019-03-25T02:51:16.534Z,164273.39
2019-03-25T02:53:45.543Z,164282.69
2019-03-25T02:56:14.491Z,164248.16
2019-03-25T02:58:43.511Z,164298.67
2019-03-25T03:01:12.599Z,164298.67
2019-03-25T03:03:41.520Z,164300.02
2019-03-25T03:06:10.464Z,164288.03
2019-03-25T03:08:39.701Z,164304.00
2019-03-25T03:11:08.643Z,164285.38
2019-03-25T03:13:37.716Z,164265.42
2019-03-25T03:16:06.815Z,164264.08
2019-03-25T03:18:35.748Z,164244.12
2019-03-25T03:21:04.767Z,164226.84
2019-03-25T03:23:33.675Z,164236.16
2019-03-25T03:26:02.776Z,164237.50
2019-03-25T03:28:31.773Z,164256.13
2019-03-25T03:31:00.708Z,164228.20
2019-03-25T03:33:30.045Z,164261.44
2019-03-25T03:35:58.951Z,164248.16
2019-03-25T03:38:27.937Z,164282.69
2019-03-25T03:40:56.848Z,164256.13
2019-03-25T03:43:25.798Z,164265.42
2019-03-25T03:45:55.077Z,164277.42
2019-03-25T03:48:24.035Z,164282.69
2019-03-25T03:50:54.181Z,164265.42
2019-03-25T03:53:23.167Z,164264.08
2019-03-25T03:55:53.455Z,164266.77
2019-03-25T03:58:25.033Z,164266.77
2019-03-25T04:00:54.097Z,164200.28
2019-03-25T04:03:23.087Z,164218.89
2019-03-25T04:05:52.078Z,164204.27
2019-03-25T04:08:20.995Z,164208.25
2019-03-25T04:10:49.934Z,164216.20
2019-03-25T04:13:18.986Z,164241.48
2019-03-25T04:15:48.076Z,164230.83
2019-03-25T04:18:18.006Z,164250.80
2019-03-25T04:20:46.945Z,164252.14
2019-03-25T04:23:15.849Z,164234.81
2019-03-25T04:25:44.866Z,164216.20
2019-03-25T04:28:13.861Z,164186.94
2019-03-25T04:30:42.905Z,164185.66
2019-03-25T04:33:11.900Z,164177.64
2019-03-25T04:35:40.773Z,164186.94
2019-03-25T04:38:09.865Z,164173.66
2019-03-25T04:40:38.794Z,164155.05
2019-03-25T04:43:07.850Z,164157.69
2019-03-25T04:45:36.731Z,164104.55
2019-03-25T04:48:05.658Z,164115.14
2019-03-25T04:50:34.913Z,164109.81
2019-03-25T04:53:04.294Z,164107.19
2019-03-25T04:55:33.273Z,164097.88
2019-03-25T04:58:02.598Z,164100.52
2019-03-25T05:00:34.883Z,164096.53
2019-03-25T05:03:04.282Z,164083.25
2019-03-25T05:05:35.861Z,164093.91
2019-03-25T05:08:04.354Z,164095.25
2019-03-25T05:10:33.575Z,164088.58
2019-03-25T05:13:02.819Z,164051.38
2019-03-25T05:15:32.077Z,164079.28
2019-03-25T05:18:01.342Z,164075.30
2019-03-25T05:20:30.229Z,164067.28
2019-03-25T05:22:59.146Z,164056.69
2019-03-25T05:25:28.285Z,164067.28
2019-03-25T05:28:00.527Z,164087.23
2019-03-25T05:30:29.483Z,164095.25
2019-03-25T05:32:58.486Z,164117.83
2019-03-25T05:35:27.409Z,164107.19
2019-03-25T05:37:56.574Z,164132.45
2019-03-25T05:40:25.597Z,164153.70
2019-03-25T05:42:54.513Z,164181.67
2019-03-25T05:45:23.452Z,164192.27
2019-03-25T05:47:53.704Z,164188.28
2019-03-25T05:50:22.683Z,164205.59
2019-03-25T05:52:52.225Z,164226.84
2019-03-25T05:55:21.113Z,164258.75
2019-03-25T05:57:50.068Z,164256.13
2019-03-25T06:00:21.220Z,164280.06
2019-03-25T06:02:50.670Z,164258.75
2019-03-25T06:05:19.955Z,164234.81
2019-03-25T06:07:49.077Z,164193.61
2019-03-25T06:10:18.009Z,164186.94
2019-03-25T06:12:48.575Z,164168.33
2019-03-25T06:15:17.887Z,164177.64
2019-03-25T06:17:46.890Z,164177.64
2019-03-25T06:20:16.114Z,164192.27
2019-03-25T06:22:45.106Z,164202.91
2019-03-25T06:25:14.080Z,164194.95
2019-03-25T06:27:45.170Z,164194.95
2019-03-25T06:30:15.229Z,164205.59
2019-03-25T06:32:44.474Z,164226.84
2019-03-25T06:35:13.543Z,164184.31
2019-03-25T06:37:42.435Z,164250.80
2019-03-25T06:40:12.155Z,164280.06
2019-03-25T06:42:41.659Z,164300.02
2019-03-25T06:45:12.996Z,164313.31
2019-03-25T06:47:41.926Z,164417.06
2019-03-25T06:50:11.422Z,164437.03
2019-03-25T06:52:40.825Z,164484.94
2019-03-25T06:55:10.131Z,164484.94
2019-03-25T06:57:39.172Z,164454.36
2019-03-25T07:00:09.224Z,164430.41
2019-03-25T07:02:38.377Z,164418.41
2019-03-25T07:05:07.901Z,164411.78
2019-03-25T07:07:36.918Z,164377.19
2019-03-25T07:10:07.408Z,164357.22
2019-03-25T07:12:37.250Z,164362.55
2019-03-25T07:15:07.635Z,164365.19
2019-03-25T07:17:36.607Z,164357.22
2019-03-25T07:20:06.510Z,164327.94
2019-03-25T07:22:35.380Z,164318.64
2019-03-25T07:25:04.753Z,164317.28
2019-03-25T07:27:37.043Z,164298.67
2019-03-25T07:30:06.656Z,164282.69
2019-03-25T07:32:35.567Z,164282.69
2019-03-25T07:35:05.204Z,164282.69
2019-03-25T07:37:34.078Z,164264.08
2019-03-25T07:40:03.477Z,164302.66
2019-03-25T07:42:32.420Z,164374.50
2019-03-25T07:45:01.372Z,164381.16
2019-03-25T07:47:30.256Z,164401.13
2019-03-25T07:49:59.325Z,164402.42
2019-03-25T07:52:28.338Z,164453.02
2019-03-25T07:54:58.841Z,164506.25
2019-03-25T07:57:28.676Z,164586.09
2019-03-25T07:59:57.671Z,164668.66
2019-03-25T08:02:26.699Z,164740.61
2019-03-25T08:04:55.776Z,164787.22
2019-03-25T08:07:24.792Z,164729.94
2019-03-25T08:09:53.758Z,164660.69
2019-03-25T08:12:22.738Z,164636.72
2019-03-25T08:14:51.657Z,164562.14
2019-03-25T08:17:20.714Z,164588.78
2019-03-25T08:19:50.084Z,164655.34
2019-03-25T08:22:18.964Z,164663.31
2019-03-25T08:24:48.143Z,164607.42
2019-03-25T08:27:17.039Z,164767.22
2019-03-25T08:29:46.012Z,164711.31
2019-03-25T08:32:14.994Z,164556.81
2019-03-25T08:34:43.949Z,164532.84
2019-03-25T08:37:13.758Z,164511.58
2019-03-25T08:39:43.289Z,164490.27
2019-03-25T08:42:12.296Z,164453.02
2019-03-25T08:44:41.379Z,164482.30
2019-03-25T08:47:11.053Z,164430.41
2019-03-25T08:49:40.092Z,164410.44
2019-03-25T08:52:09.302Z,164429.06
2019-03-25T08:54:38.225Z,164439.72
2019-03-25T08:57:07.257Z,164512.87
2019-03-25T08:59:36.413Z,164526.22
2019-03-25T09:02:05.867Z,164548.84
2019-03-25T09:04:34.765Z,164568.81
2019-03-25T09:07:03.831Z,164631.37
2019-03-25T09:09:32.817Z,164687.28
2019-03-25T09:12:01.742Z,164779.23
2019-03-25T09:14:30.950Z,164744.59
2019-03-25T09:17:00.649Z,164756.61
2019-03-25T09:19:31.237Z,164668.66
2019-03-25T09:22:01.546Z,164538.19
2019-03-25T09:24:32.939Z,164453.02
2019-03-25T09:27:01.491Z,164442.36
2019-03-25T09:29:30.445Z,164434.39
2019-03-25T09:31:59.868Z,164445.05
2019-03-25T09:34:28.916Z,164458.34
2019-03-25T09:36:57.822Z,164492.95
2019-03-25T09:39:27.486Z,164586.09
2019-03-25T09:41:56.496Z,164657.98
2019-03-25T09:44:25.603Z,164723.31
2019-03-25T09:46:54.503Z,164796.53
2019-03-25T09:49:23.448Z,164857.84
2019-03-25T09:51:53.428Z,164927.09
2019-03-25T09:54:22.389Z,164956.41
2019-03-25T09:56:51.342Z,165044.38
2019-03-25T09:59:20.589Z,165075.02
2019-03-25T10:01:49.590Z,165096.36
2019-03-25T10:04:20.116Z,165108.33
2019-03-25T10:06:49.201Z,165124.34
2019-03-25T10:09:18.299Z,165140.36
2019-03-25T10:11:47.178Z,165100.34
2019-03-25T10:14:16.650Z,165013.72
2019-03-25T10:16:45.582Z,164943.09
2019-03-25T10:19:14.898Z,164919.13
2019-03-25T10:21:44.321Z,164921.75
2019-03-25T10:24:13.536Z,165032.37
2019-03-25T10:26:44.679Z,165133.67
2019-03-25T10:29:13.605Z,165223.03
2019-03-25T10:31:42.652Z,165292.34
2019-03-25T10:34:11.595Z,165289.70
2019-03-25T10:36:40.640Z,165241.70
2019-03-25T10:39:10.133Z,165204.37
2019-03-25T10:41:39.058Z,165177.69
2019-03-25T10:44:09.461Z,165177.69
2019-03-25T10:46:39.004Z,165308.38
2019-03-25T10:49:07.946Z,165343.11
2019-03-25T10:51:37.305Z,165524.55
2019-03-25T10:54:06.253Z,165451.14
2019-03-25T10:56:35.261Z,165360.44
2019-03-25T10:59:04.323Z,165329.69
2019-03-25T11:01:33.291Z,165291.00
2019-03-25T11:04:02.401Z,165393.78
2019-03-25T11:06:31.286Z,165432.47
2019-03-25T11:09:00.258Z,165391.14
2019-03-25T11:11:29.193Z,165356.44
2019-03-25T11:13:58.210Z,165444.50
2019-03-25T11:16:27.110Z,165432.47
2019-03-25T11:18:56.024Z,165515.20
2019-03-25T11:21:25.229Z,165577.94
2019-03-25T11:23:54.168Z,165551.22
2019-03-25T11:26:23.129Z,165619.30
2019-03-25T11:28:52.423Z,165524.55
2019-03-25T11:31:21.367Z,165515.20
2019-03-25T11:33:50.476Z,165609.95
2019-03-25T11:36:19.891Z,165572.59
2019-03-25T11:38:48.770Z,165650.00
2019-03-25T11:41:17.806Z,165576.58
2019-03-25T11:43:46.682Z,165520.55
2019-03-25T11:46:15.604Z,165468.52
2019-03-25T11:48:44.687Z,165441.81
2019-03-25T11:51:13.571Z,165524.55
2019-03-25T11:53:42.632Z,165636.67
2019-03-25T11:56:11.740Z,165532.53
2019-03-25T11:58:40.687Z,165521.84
2019-03-25T12:01:09.951Z,165541.88
2019-03-25T12:03:38.894Z,165437.81
2019-03-25T12:06:08.173Z,165405.81
2019-03-25T12:08:37.330Z,165403.12
2019-03-25T12:11:06.520Z,165455.14
2019-03-25T12:13:35.544Z,165468.52
2019-03-25T12:16:04.606Z,165561.91
2019-03-25T12:18:33.642Z,165543.22
2019-03-25T12:21:03.127Z,165567.25
2019-03-25T12:23:32.233Z,165537.88
2019-03-25T12:26:01.323Z,165524.55
2019-03-25T12:28:30.269Z,165555.27
2019-03-25T12:30:59.273Z,165569.94
2019-03-25T12:33:28.195Z,165519.20
2019-03-25T12:35:57.330Z,165551.22
2019-03-25T12:38:26.464Z,165519.20
2019-03-25T12:40:55.783Z,165424.48
2019-03-25T12:43:24.999Z,165399.12
2019-03-25T12:45:54.039Z,165131.03
2019-03-25T12:48:23.323Z,165075.02
2019-03-25T12:50:52.553Z,165080.34
2019-03-25T12:53:21.410Z,165105.69
2019-03-25T12:55:51.261Z,165143.00
2019-03-25T12:58:20.441Z,165121.70
2019-03-25T13:00:49.469Z,165060.34
2019-03-25T13:03:18.759Z,164905.81
2019-03-25T13:05:47.968Z,164813.88
2019-03-25T13:08:17.188Z,164759.25
2019-03-25T13:10:46.153Z,164590.08
2019-03-25T13:13:15.388Z,164494.25
2019-03-25T13:15:44.591Z,164438.37
2019-03-25T13:18:13.502Z,164418.41
2019-03-25T13:20:42.431Z,164463.67
2019-03-25T13:23:11.367Z,164500.92
2019-03-25T13:25:40.334Z,164592.78
2019-03-25T13:28:09.339Z,164626.06
2019-03-25T13:30:38.545Z,164689.98
2019-03-25T13:33:08.147Z,164779.23
2019-03-25T13:35:38.649Z,164776.59
2019-03-25T13:38:07.861Z,164868.47
2019-03-25T13:40:36.922Z,164891.14
2019-03-25T13:43:05.825Z,164929.78
2019-03-25T13:45:34.742Z,164973.72
2019-03-25T13:48:04.067Z,165021.69
2019-03-25T13:50:33.139Z,165000.39
2019-03-25T13:53:02.243Z,164991.06
2019-03-25T13:55:33.614Z,165001.75
2019-03-25T13:58:02.669Z,165057.70
2019-03-25T14:00:37.298Z,165105.69
2019-03-25T14:03:06.239Z,165152.33
2019-03-25T14:05:36.336Z,165177.69
2019-03-25T14:08:05.354Z,165204.37
2019-03-25T14:10:34.272Z,165209.66
2019-03-25T14:13:03.652Z,165188.36
2019-03-25T14:15:32.607Z,165225.69
2019-03-25T14:18:01.792Z,165185.66
2019-03-25T14:20:30.732Z,165133.67
2019-03-25T14:23:00.941Z,165127.05
2019-03-25T14:25:29.893Z,165164.36
2019-03-25T14:27:59.247Z,165159.02
2019-03-25T14:30:28.333Z,165159.02
2019-03-25T14:32:57.224Z,165216.34
2019-03-25T14:35:26.198Z,165248.33
2019-03-25T14:37:55.120Z,165252.37
2019-03-25T14:40:25.610Z,165336.37
2019-03-25T14:42:54.646Z,165311.02
2019-03-25T14:45:26.706Z,165315.02
2019-03-25T14:47:54.824Z,165372.47
2019-03-25T14:50:23.728Z,165329.69
2019-03-25T14:52:52.703Z,165316.36
2019-03-25T14:55:21.640Z,165253.67
2019-03-25T14:57:50.604Z,165289.70
2019-03-25T15:00:25.020Z,165271.05
2019-03-25T15:02:51.079Z,165285.72
2019-03-25T15:05:19.983Z,165281.67
2019-03-25T15:07:48.923Z,165337.72
2019-03-25T15:10:18.067Z,165404.47
2019-03-25T15:12:47.038Z,165409.81
2019-03-25T15:15:16.506Z,165333.72
2019-03-25T15:17:45.434Z,165396.48
2019-03-25T15:20:14.854Z,165372.47
2019-03-25T15:22:44.077Z,165457.84
2019-03-25T15:25:14.314Z,165487.19
2019-03-25T15:27:43.507Z,165457.84
2019-03-25T15:30:12.758Z,165357.78
2019-03-25T15:32:41.797Z,165324.39
2019-03-25T15:35:11.666Z,165304.38
2019-03-25T15:37:41.053Z,165280.38
2019-03-25T15:40:13.135Z,165279.03
2019-03-25T15:42:42.436Z,165308.38
2019-03-25T15:45:11.580Z,165311.02
2019-03-25T15:47:43.797Z,165279.03
2019-03-25T15:50:12.564Z,165280.38
2019-03-25T15:52:41.475Z,165319.05
2019-03-25T15:55:12.019Z,165375.11
2019-03-25T15:57:41.007Z,165413.80
2019-03-25T16:00:15.825Z,165383.09
2019-03-25T16:02:45.228Z,165400.47
2019-03-25T16:05:15.446Z,165391.14
2019-03-25T16:07:44.518Z,165391.14
2019-03-25T16:10:17.255Z,165368.42
2019-03-25T16:12:46.952Z,165367.13
2019-03-25T16:15:39.417Z,165364.44
2019-03-25T16:18:09.066Z,165364.44
2019-03-25T16:20:38.445Z,165371.13
2019-03-25T16:23:09.256Z,165399.12
2019-03-25T16:25:38.527Z,165433.81
2019-03-25T16:28:07.421Z,165441.81
2019-03-25T16:30:36.666Z,165393.78
2019-03-25T16:33:05.584Z,165412.45
2019-03-25T16:35:34.588Z,165404.47
2019-03-25T16:38:03.488Z,165399.12
2019-03-25T16:40:32.405Z,165395.13
2019-03-25T16:43:02.108Z,165379.09
2019-03-25T16:45:31.145Z,165364.44
2019-03-25T16:48:00.172Z,165353.75
2019-03-25T16:50:29.811Z,165321.70
2019-03-25T16:53:00.480Z,165320.34
2019-03-25T16:55:29.429Z,165297.69
2019-03-25T16:57:58.361Z,165271.05
2019-03-25T17:00:28.237Z,165275.03
2019-03-25T17:02:57.241Z,165269.69
2019-03-25T17:05:26.134Z,165252.37
2019-03-25T17:07:55.284Z,165236.36
2019-03-25T17:10:24.240Z,165228.38
2019-03-25T17:12:53.242Z,165235.00
2019-03-25T17:15:22.132Z,165227.03
2019-03-25T17:17:51.153Z,165220.34
2019-03-25T17:20:20.216Z,165209.66
2019-03-25T17:22:49.205Z,165201.67
2019-03-25T17:25:18.164Z,165193.69
2019-03-25T17:27:47.311Z,165184.36
2019-03-25T17:30:17.347Z,165172.34
2019-03-25T17:32:47.057Z,165156.31
2019-03-25T17:35:15.954Z,165121.70
2019-03-25T17:37:45.033Z,165103.05
2019-03-25T17:40:14.505Z,165081.69
2019-03-25T17:42:43.571Z,165079.05
2019-03-25T17:45:13.906Z,165065.69
2019-03-25T17:47:43.261Z,165044.38
2019-03-25T17:50:12.628Z,165035.06
2019-03-25T17:52:41.568Z,165012.38
2019-03-25T17:55:11.584Z,164995.06
2019-03-25T17:57:40.504Z,165001.75
2019-03-25T18:00:11.249Z,164952.42
2019-03-25T18:02:40.515Z,164953.77
2019-03-25T18:05:10.031Z,164921.75
2019-03-25T18:07:38.959Z,164943.09
2019-03-25T18:10:08.245Z,164935.13
2019-03-25T18:12:39.046Z,164913.78
2019-03-25T18:15:13.073Z,164897.78
2019-03-25T18:17:42.109Z,164891.14
2019-03-25T18:20:18.625Z,164877.78
2019-03-25T18:22:42.341Z,164876.48
2019-03-25T18:25:13.285Z,164863.19
2019-03-25T18:27:42.247Z,164847.17
2019-03-25T18:30:11.557Z,164831.17
2019-03-25T18:32:40.509Z,164855.16
2019-03-25T18:35:14.614Z,164845.83
2019-03-25T18:37:43.837Z,164828.53
2019-03-25T18:40:12.953Z,164796.53
2019-03-25T18:42:41.901Z,164799.22
2019-03-25T18:45:10.865Z,164792.55
2019-03-25T18:47:39.950Z,164793.89
2019-03-25T18:50:09.308Z,164784.56
2019-03-25T18:52:38.240Z,164768.56
2019-03-25T18:55:07.921Z,164772.56
2019-03-25T18:57:37.098Z,164780.58
2019-03-25T19:00:06.298Z,164769.91
2019-03-25T19:02:35.329Z,164777.89
2019-03-25T19:05:04.430Z,164759.25
2019-03-25T19:07:34.852Z,164748.58
2019-03-25T19:10:03.948Z,164728.66
2019-03-25T19:12:32.809Z,164695.25
2019-03-25T19:15:03.081Z,164703.34
2019-03-25T19:17:32.362Z,164700.59
2019-03-25T19:20:01.320Z,164721.97
2019-03-25T19:22:30.617Z,164714.00
2019-03-25T19:24:59.579Z,164647.33
2019-03-25T19:27:29.192Z,164693.97
2019-03-25T19:29:58.754Z,164703.34
2019-03-25T19:32:27.699Z,164697.95
2019-03-25T19:34:56.682Z,164677.97
2019-03-25T19:37:25.620Z,164620.72
2019-03-25T19:39:54.686Z,164657.98
2019-03-25T19:42:23.607Z,164644.69
2019-03-25T19:44:52.531Z,164643.34
2019-03-25T19:47:21.640Z,164647.33
2019-03-25T19:49:50.990Z,164623.36
2019-03-25T19:52:20.123Z,164608.72
2019-03-25T19:54:49.063Z,164567.47
2019-03-25T19:57:18.510Z,164578.13
2019-03-25T19:59:47.655Z,164567.47
2019-03-25T20:02:19.177Z,164570.16
2019-03-25T20:04:47.860Z,164535.53
2019-03-25T20:07:17.317Z,164503.56
2019-03-25T20:09:47.401Z,164519.55
2019-03-25T20:12:16.396Z,164522.23
2019-03-25T20:14:45.374Z,164514.22
2019-03-25T20:17:14.723Z,164500.92
2019-03-25T20:19:43.648Z,164503.56
2019-03-25T20:22:13.161Z,164498.23
2019-03-25T20:24:43.040Z,164506.25
2019-03-25T20:27:12.368Z,164496.94
2019-03-25T20:29:41.753Z,164476.97
2019-03-25T20:32:10.813Z,164498.23
2019-03-25T20:34:39.914Z,164479.61
2019-03-25T20:37:08.848Z,164490.27
2019-03-25T20:39:37.866Z,164490.27
2019-03-25T20:42:07.295Z,164488.92
2019-03-25T20:44:36.268Z,164503.56
2019-03-25T20:47:05.516Z,164498.23
2019-03-25T20:49:34.849Z,164498.23
2019-03-25T20:52:04.668Z,164483.64
2019-03-25T20:54:33.693Z,164462.33
2019-03-25T20:57:02.875Z,164437.03
2019-03-25T20:59:31.880Z,164425.08
2019-03-25T21:02:01.341Z,164429.06
2019-03-25T21:04:30.389Z,164467.66
2019-03-25T21:06:59.322Z,164472.98
2019-03-25T21:09:28.342Z,164453.02
2019-03-25T21:11:57.296Z,164457.00
2019-03-25T21:14:26.755Z,164445.05
2019-03-25T21:16:55.678Z,164455.66
2019-03-25T21:19:24.726Z,164438.37
2019-03-25T21:21:53.943Z,164434.39
2019-03-25T21:24:23.190Z,164411.78
2019-03-25T21:26:52.198Z,164401.13
2019-03-25T21:29:21.376Z,164386.50
2019-03-25T21:31:50.812Z,164415.77
2019-03-25T21:34:20.036Z,164413.08
2019-03-25T21:36:49.024Z,164391.81
2019-03-25T21:39:18.006Z,164391.81
2019-03-25T21:41:47.583Z,164375.84
2019-03-25T21:44:17.307Z,164391.81
2019-03-25T21:46:46.954Z,164341.23
2019-03-25T21:49:16.980Z,164349.25
2019-03-25T21:51:46.043Z,164367.87
2019-03-25T21:54:14.989Z,164339.89
2019-03-25T21:56:44.559Z,164350.55
2019-03-25T21:59:13.482Z,164353.23
2019-03-25T22:01:42.491Z,164337.25
2019-03-25T22:04:11.407Z,164333.27
2019-03-25T22:06:40.912Z,164330.58
2019-03-25T22:09:10.802Z,164325.31
2019-03-25T22:11:40.382Z,164298.67
2019-03-25T22:14:09.334Z,164305.34
2019-03-25T22:16:38.714Z,164293.34
2019-03-25T22:19:07.743Z,164269.41
2019-03-25T22:21:36.944Z,164289.36
2019-03-25T22:24:06.011Z,164289.36
2019-03-25T22:26:35.044Z,164311.97
2019-03-25T22:29:04.039Z,164293.34
2019-03-25T22:31:33.037Z,164288.03
2019-03-25T22:34:02.287Z,164258.75
2019-03-25T22:36:31.419Z,164262.78
2019-03-25T22:39:01.104Z,164269.41
2019-03-25T22:41:30.731Z,164265.42
2019-03-25T22:43:59.799Z,164258.75
2019-03-25T22:46:29.034Z,164258.75
2019-03-25T22:48:57.937Z,164258.75
2019-03-25T22:51:26.852Z,164256.13
2019-03-25T22:53:55.791Z,164248.16
2019-03-25T22:56:24.898Z,164230.83
2019-03-25T22:58:53.798Z,164248.16
2019-03-25T23:01:22.879Z,164244.12
2019-03-25T23:03:51.792Z,164218.89
2019-03-25T23:06:20.701Z,164240.14
2019-03-25T23:08:49.691Z,164242.83
2019-03-25T23:11:18.664Z,164248.16
2019-03-25T23:13:47.569Z,164242.83
2019-03-25T23:16:16.529Z,164228.20
2019-03-25T23:18:45.438Z,164249.45
2019-03-25T23:21:14.363Z,164258.75
2019-03-25T23:23:43.414Z,164266.77
2019-03-25T23:26:12.321Z,164288.03
2019-03-25T23:28:41.548Z,164297.33
2019-03-25T23:31:10.570Z,164304.00
2019-03-25T23:33:51.660Z,164314.66
2019-03-25T23:36:10.338Z,164338.59
2019-03-25T23:38:40.040Z,164317.28
2019-03-25T23:41:09.295Z,164319.98
2019-03-25T23:43:38.172Z,164349.25
2019-03-25T23:46:07.177Z,164362.55
2019-03-25T23:48:36.073Z,164361.20
2019-03-25T23:51:05.139Z,164389.12
2019-03-25T23:53:36.814Z,164402.42
2019-03-25T23:56:05.881Z,164423.73
2019-03-25T23:58:34.869Z,164414.42
